Time;durP1;ratioP1;P1;durP2;ratioP2;P2;SDS_P1;SDS_P2;PMS_P1;PMS_P2;Temp;Humidity;BMP_temperature;BMP_pressure;BME280_temperature;BME280_humidity;BME280_pressure;Samples;Min_cycle;Max_cycle;Signal;HPM_P1;HPM_P2
2022/02/17 01:17:13;;;;;;;49.10;29.75;;;;;;;7.20;100.00;100868.94;5472975;23;20063;-72
2022/02/17 01:19:59;;;;;;;48.28;27.55;;;;;;;7.36;100.00;100859.38;4936282;29;20107;-72
2022/02/17 01:22:45;;;;;;;50.38;29.90;;;;;;;6.71;100.00;100849.03;4936363;29;20407;-72
2022/02/17 01:25:31;;;;;;;47.95;28.25;;;;;;;6.32;100.00;100846.41;4923607;29;20036;-72
2022/02/17 01:28:17;;;;;;;48.15;29.52;;;;;;;6.72;100.00;100842.09;4917481;29;20024;-72
2022/02/17 01:31:03;;;;;;;48.83;28.88;;;;;;;6.56;100.00;100838.63;4917510;29;20099;-73
2022/02/17 01:33:49;;;;;;;52.75;29.38;;;;;;;6.42;100.00;100834.25;4916975;29;20142;-72
2022/02/17 01:36:34;;;;;;;50.65;29.90;;;;;;;6.38;100.00;100833.41;4917195;29;20068;-72
2022/02/17 01:39:20;;;;;;;54.08;31.35;;;;;;;6.56;100.00;100824.75;4916535;29;20032;-72
2022/02/17 01:42:10;;;;;;;52.28;30.05;;;;;;;6.74;100.00;100823.00;4917547;29;20366;-72
2022/02/17 01:44:55;;;;;;;51.33;30.60;;;;;;;6.58;100.00;100826.47;4917223;29;20035;-72
2022/02/17 01:47:46;;;;;;;55.45;31.15;;;;;;;6.77;100.00;100832.53;4917759;29;20035;-73
2022/02/17 01:50:32;;;;;;;52.03;30.67;;;;;;;6.74;100.00;100825.59;4917155;29;20028;-72
2022/02/17 01:53:18;;;;;;;49.63;28.52;;;;;;;6.50;100.00;100817.78;4916821;29;20082;-72
2022/02/17 01:56:04;;;;;;;51.22;29.77;;;;;;;6.57;100.00;100824.75;4917369;29;20038;-72
2022/02/17 01:58:52;;;;;;;52.35;30.70;;;;;;;6.69;100.00;100819.53;4920600;29;20523;-72
2022/02/17 02:01:38;;;;;;;59.70;31.98;;;;;;;6.45;100.00;100824.75;4921605;29;20042;-72
2022/02/17 02:04:24;;;;;;;59.95;36.25;;;;;;;6.55;100.00;100821.25;4921358;29;20040;-72
2022/02/17 02:07:10;;;;;;;85.93;54.15;;;;;;;6.39;100.00;100829.06;4919989;29;20029;-72
2022/02/17 02:09:56;;;;;;;80.50;49.80;;;;;;;6.52;100.00;100830.81;4921431;29;20038;-72
2022/02/17 02:12:42;;;;;;;85.22;52.75;;;;;;;6.02;100.00;100832.47;4908004;29;20054;-72
2022/02/17 02:15:50;;;;;;;75.13;44.67;;;;;;;6.22;100.00;100828.19;4920309;29;20059;-72
2022/02/17 03:37:10;;;;;;;67.93;40.38;;;;;;;6.65;100.00;100777.88;5393308;23;20048;-72
2022/02/17 03:39:56;;;;;;;69.68;41.45;;;;;;;6.27;100.00;100767.47;4925253;29;20035;-72
2022/02/17 03:42:43;;;;;;;68.22;40.00;;;;;;;5.95;100.00;100768.31;4938015;29;20024;-72
2022/02/17 03:45:29;;;;;;;68.68;41.53;;;;;;;6.48;100.00;100774.44;4937160;29;20460;-73
2022/02/17 03:48:14;;;;;;;70.57;40.60;;;;;;;6.45;100.00;100767.50;4918638;29;20047;-72
2022/02/17 03:51:00;;;;;;;71.65;40.90;;;;;;;6.64;100.00;100769.22;4917904;29;20079;-72
2022/02/17 03:53:46;;;;;;;66.80;38.60;;;;;;;6.60;100.00;100762.28;4919710;29;20028;-71
2022/02/17 03:56:31;;;;;;;67.28;40.03;;;;;;;6.71;100.00;100757.06;4918029;29;20460;-71
2022/02/17 03:59:17;;;;;;;67.35;38.63;;;;;;;6.73;100.00;100768.31;4918104;29;20091;-72
2022/02/17 04:02:04;;;;;;;71.13;42.20;;;;;;;6.26;100.00;100770.09;4917984;29;20339;-72
2022/02/17 04:04:49;;;;;;;64.72;40.38;;;;;;;5.69;100.00;100780.31;4919356;29;20103;-72
2022/02/17 04:07:36;;;;;;;65.03;38.28;;;;;;;5.22;100.00;100773.22;4918740;29;20052;-72
2022/02/17 04:10:22;;;;;;;62.85;36.85;;;;;;;5.12;100.00;100768.88;4919289;29;20121;-72
2022/02/17 04:13:08;;;;;;;60.85;36.80;;;;;;;4.96;100.00;100761.84;4917959;29;20119;-73
2022/02/17 04:15:54;;;;;;;62.53;35.97;;;;;;;5.31;100.00;100762.03;4917503;29;20106;-72
2022/02/17 05:57:05;;;;;;;70.70;40.97;;;;;;;5.43;100.00;100698.84;5815233;23;20039;-71
2022/02/17 05:59:51;;;;;;;65.75;38.13;;;;;;;5.38;100.00;100700.56;4946409;29;20048;-71
2022/02/17 06:02:37;;;;;;;66.13;37.28;;;;;;;5.40;100.00;100705.75;4946520;29;20028;-72
2022/02/17 06:05:22;;;;;;;60.75;36.67;;;;;;;5.16;100.00;100704.81;4943733;29;20047;-70
2022/02/17 06:08:08;;;;;;;55.17;34.38;;;;;;;5.06;100.00;100703.03;4925222;29;20020;-71
2022/02/17 06:10:54;;;;;;;63.45;35.88;;;;;;;5.10;100.00;100696.97;4924963;29;20028;-71
2022/02/17 06:13:40;;;;;;;65.85;37.67;;;;;;;5.11;100.00;100699.59;4926551;29;20052;-72
2022/02/17 06:16:25;;;;;;;69.25;40.72;;;;;;;5.21;100.00;100695.31;4922376;29;20346;-72
2022/02/17 06:19:11;;;;;;;63.10;38.38;;;;;;;5.62;100.00;100688.50;4923054;29;20040;-72
2022/02/17 06:21:57;;;;;;;66.20;39.75;;;;;;;5.28;100.00;100690.13;4925643;29;20442;-71
2022/02/17 06:24:43;;;;;;;74.15;41.05;;;;;;;5.24;100.00;100687.53;4925967;29;20032;-72
2022/02/17 06:27:29;;;;;;;66.00;40.65;;;;;;;5.34;100.00;100690.16;4911540;29;20028;-72
2022/02/17 06:30:16;;;;;;;76.45;44.78;;;;;;;5.43;100.00;100691.06;4911869;29;20415;-73
2022/02/17 06:33:02;;;;;;;74.00;41.60;;;;;;;5.65;100.00;100680.72;4928340;29;20032;-72
2022/02/17 06:35:48;;;;;;;78.25;42.67;;;;;;;5.44;100.00;100681.50;4926528;29;20394;-73
2022/02/17 09:04:03;;;;;;;59.30;37.08;;;;;;;10.09;100.00;100537.94;5872069;23;19962;-71
2022/02/17 09:06:49;;;;;;;54.10;36.13;;;;;;;9.61;100.00;100542.22;4941220;29;20130;-72
2022/02/17 09:09:35;;;;;;;59.22;36.08;;;;;;;9.32;100.00;100531.38;4941032;29;20028;-71
2022/02/17 09:12:20;;;;;;;52.92;34.83;;;;;;;10.27;100.00;100521.00;4940704;29;20039;-72
2022/02/17 09:15:07;;;;;;;57.28;36.17;;;;;;;10.49;100.00;100515.31;4940432;29;20396;-73
2022/02/17 09:17:52;;;;;;;50.88;34.85;;;;;;;10.39;100.00;100510.28;4940741;29;20061;-72
2022/02/17 09:20:39;;;;;;;55.80;35.90;;;;;;;10.49;100.00;100504.00;4927564;29;20031;-72
2022/02/17 09:23:25;;;;;;;56.08;36.00;;;;;;;10.42;100.00;100507.63;4940655;29;20091;-72
2022/02/17 09:26:11;;;;;;;58.17;36.33;;;;;;;10.14;100.00;100500.31;4939902;29;20041;-72
2022/02/17 09:28:57;;;;;;;61.67;37.28;;;;;;;10.52;100.00;100499.53;4940317;29;20039;-72
2022/02/17 09:31:43;;;;;;;56.05;37.90;;;;;;;10.55;100.00;100496.88;4940421;29;20111;-72
2022/02/17 09:34:29;;;;;;;51.30;35.20;;;;;;;10.57;100.00;100486.38;4940883;29;20453;-74
2022/02/17 09:37:15;;;;;;;54.88;36.08;;;;;;;10.71;100.00;100468.56;4940991;29;20039;-73
2022/02/17 09:40:03;;;;;;;56.03;37.03;;;;;;;10.54;100.00;100466.34;4940141;29;20452;-72
2022/02/17 09:42:49;;;;;;;58.58;36.55;;;;;;;10.39;100.00;100461.41;4940942;29;20043;-73
2022/02/17 10:23:48;;;;;;;57.47;35.58;;;;;;;12.48;100.00;100387.78;5205075;23;20056;-73
2022/02/17 10:26:34;;;;;;;53.83;33.90;;;;;;;12.57;100.00;100380.50;4939129;29;20043;-73
2022/02/17 10:29:19;;;;;;;52.75;33.35;;;;;;;12.83;100.00;100375.25;4940044;29;20047;-73
2022/02/17 10:32:12;;;;;;;50.70;33.92;;;;;;;13.10;100.00;100365.69;4939993;29;20028;-73
2022/02/17 10:35:13;;;;;;;54.65;34.50;;;;;;;13.23;100.00;100357.31;4939615;29;20031;-72
2022/02/17 10:38:01;;;;;;;52.88;33.15;;;;;;;13.60;100.00;100355.13;4939474;29;20037;-74
2022/02/17 10:40:54;;;;;;;49.28;32.90;;;;;;;13.42;100.00;100355.78;4939053;29;20479;-73
2022/02/17 10:43:39;;;;;;;46.72;30.52;;;;;;;13.48;100.00;100347.69;4939600;29;20408;-72
2022/02/17 12:01:00;;;;;;;38.80;26.42;;;;;;;16.75;85.19;100208.59;5985368;23;20027;31
2022/02/17 12:04:05;;;;;;;37.17;26.52;;;;;;;16.75;83.28;100207.72;4879616;29;20049;-73
2022/02/17 12:06:53;;;;;;;35.58;24.60;;;;;;;16.51;87.23;100201.88;4891188;29;20351;-73
2022/02/17 12:09:43;;;;;;;40.58;25.80;;;;;;;15.78;93.21;100202.81;4886692;29;20033;-73
2022/02/17 12:12:30;;;;;;;40.40;25.98;;;;;;;16.66;87.37;100197.59;4900180;29;20418;-73
2022/02/17 12:15:20;;;;;;;33.85;24.35;;;;;;;16.73;85.94;100191.09;4899217;29;20051;-73
2022/02/17 12:18:06;;;;;;;80.32;56.10;;;;;;;16.88;86.13;100193.78;4887406;29;20131;-73
2022/02/17 12:20:57;;;;;;;38.28;25.10;;;;;;;16.67;85.12;100186.97;4899578;29;20119;-73
2022/02/17 12:23:45;;;;;;;34.40;23.17;;;;;;;16.82;85.80;100187.97;4900222;29;20032;-73
2022/02/17 12:26:42;;;;;;;36.70;25.33;;;;;;;16.38;87.68;100184.00;4899592;29;20035;-73
2022/02/17 12:29:36;;;;;;;36.95;24.02;;;;;;;16.32;90.42;100179.88;4899203;29;20033;-73
2022/02/17 12:32:23;;;;;;;34.50;23.80;;;;;;;16.60;87.28;100168.84;4899195;29;20087;-73
2022/02/17 12:35:09;;;;;;;38.53;23.98;;;;;;;16.39;87.54;100167.25;4899411;29;20033;-73
2022/02/17 12:38:08;;;;;;;36.90;23.77;;;;;;;16.72;84.64;100155.81;4899769;29;20040;-73
2022/02/17 12:40:54;;;;;;;35.42;22.02;;;;;;;16.81;82.76;100165.09;4899613;29;20035;-73
2022/02/17 14:54:07;;;;;;;12.57;7.57;;;;;;;16.89;58.41;99864.78;5358413;23;20048;-73
2022/02/17 14:56:53;;;;;;;18.27;8.52;;;;;;;16.97;57.96;99864.34;4939734;29;20057;-72
2022/02/17 14:59:38;;;;;;;16.67;9.43;;;;;;;16.79;58.22;99858.28;4939207;29;20023;-73
2022/02/17 15:02:24;;;;;;;13.50;8.55;;;;;;;16.63;57.84;99846.84;4938365;29;20031;-73
2022/02/17 18:03:39;;;;;;;34.90;19.73;;;;;;;14.18;78.32;99827.81;5726015;23;20130;-71
2022/02/17 18:06:25;;;;;;;33.70;19.67;;;;;;;14.20;77.71;99849.66;4939692;29;20074;-72
2022/02/17 18:09:11;;;;;;;32.83;19.30;;;;;;;14.08;78.59;99834.44;4939469;29;20034;-71
2022/02/17 18:11:58;;;;;;;32.88;19.70;;;;;;;14.07;79.72;99837.97;4938942;29;20038;-71
2022/02/17 18:14:43;;;;;;;35.75;21.05;;;;;;;13.84;82.41;99830.28;4939411;29;20040;-71
2022/02/17 18:17:29;;;;;;;37.85;23.25;;;;;;;13.69;84.99;99825.69;4927114;29;20047;-71
2022/02/17 18:20:18;;;;;;;40.92;25.08;;;;;;;13.81;85.21;99825.13;4926899;29;20094;-71
2022/02/17 18:23:05;;;;;;;43.90;25.40;;;;;;;13.87;84.75;99845.91;4940128;29;20087;-72
2022/02/17 18:25:50;;;;;;;44.10;27.95;;;;;;;13.71;85.01;99844.88;4925609;29;20071;-70
2022/02/17 18:28:36;;;;;;;45.67;27.20;;;;;;;13.65;85.15;99839.03;4926893;29;20035;-70
2022/02/17 18:31:22;;;;;;;48.60;27.60;;;;;;;13.76;84.63;99840.28;4939238;29;20448;-71
2022/02/17 18:34:08;;;;;;;43.55;24.83;;;;;;;13.75;85.18;99845.63;4938986;29;20031;-71
2022/02/17 18:36:56;;;;;;;43.08;25.58;;;;;;;13.77;85.28;99844.63;4939217;29;20035;-71
2022/02/17 18:39:43;;;;;;;42.35;25.45;;;;;;;13.63;86.64;99854.88;4925578;29;20475;-71
2022/02/17 18:42:28;;;;;;;37.13;21.70;;;;;;;13.74;86.19;99850.03;4939410;29;20042;-71
2022/02/17 18:45:15;;;;;;;37.22;23.20;;;;;;;13.74;86.22;99852.66;4939151;29;20063;-71
2022/02/17 18:48:01;;;;;;;36.38;22.20;;;;;;;13.62;86.96;99847.91;4939385;29;20028;-72
2022/02/17 18:50:47;;;;;;;39.67;23.08;;;;;;;13.59;87.91;99848.03;4939364;29;20094;-72
2022/02/17 19:05:00;;;;;;;44.75;25.05;;;;;;;13.34;91.91;99828.16;5372054;23;20047;-71
2022/02/17 19:07:46;;;;;;;43.83;27.77;;;;;;;13.19;93.29;99823.53;4924998;29;20039;-72
2022/02/17 19:10:32;;;;;;;45.72;26.25;;;;;;;13.10;94.52;99826.53;4938994;29;20027;-71
2022/02/17 19:13:18;;;;;;;48.78;30.40;;;;;;;13.21;93.47;99822.53;4938652;29;20032;-71
2022/02/17 19:16:04;;;;;;;56.22;33.65;;;;;;;12.80;96.90;99823.38;4937014;29;20035;-71
2022/02/17 19:18:50;;;;;;;59.03;35.33;;;;;;;12.48;100.00;99815.91;4938470;29;20035;-72
2022/02/17 19:21:37;;;;;;;56.88;33.15;;;;;;;12.20;100.00;99817.91;4938565;29;20032;-71
2022/02/17 19:24:23;;;;;;;56.60;32.38;;;;;;;12.46;100.00;99814.28;4939537;29;20031;-72
2022/02/17 19:27:09;;;;;;;54.47;32.80;;;;;;;12.82;98.99;99810.16;4937962;29;20047;-72
2022/02/17 19:29:55;;;;;;;50.88;30.67;;;;;;;12.71;99.78;99815.88;4938402;29;20027;-71
2022/02/17 19:32:40;;;;;;;49.88;30.02;;;;;;;12.70;99.26;99808.03;4938135;29;20019;-72
2022/02/17 19:35:28;;;;;;;52.10;28.08;;;;;;;12.75;98.38;99812.19;4938314;29;20119;-71
2022/02/17 19:38:15;;;;;;;50.08;29.83;;;;;;;12.62;99.79;99816.22;4925185;29;20027;-71
2022/02/17 21:07:05;;;;;;;35.30;19.85;;;;;;;12.34;100.00;99868.13;4878971;29;20056;-71
2022/02/17 21:09:51;;;;;;;39.55;20.67;;;;;;;12.18;100.00;99869.59;4879940;29;20382;-71
2022/02/17 21:12:45;;;;;;;40.40;26.02;;;;;;;12.40;100.00;99875.78;4880347;29;20029;-72
2022/02/17 21:15:31;;;;;;;31.42;18.95;;;;;;;12.28;100.00;99878.00;4879468;29;20450;-71
2022/02/17 21:18:17;;;;;;;32.78;18.42;;;;;;;12.68;100.00;99888.69;4867321;29;20470;-71
2022/02/17 21:21:04;;;;;;;30.52;18.05;;;;;;;12.67;99.86;99892.25;4879790;29;20068;-72
2022/02/17 21:23:52;;;;;;;27.65;17.08;;;;;;;12.69;99.24;99896.53;4880176;29;20033;-71
2022/02/17 21:26:43;;;;;;;31.95;17.05;;;;;;;12.84;97.39;99895.94;4879269;29;20109;-71
2022/02/17 21:29:29;;;;;;;25.05;15.88;;;;;;;13.03;94.31;99898.72;4880156;29;20366;-72
2022/02/17 21:32:15;;;;;;;22.95;15.32;;;;;;;12.81;95.70;99903.94;4880192;29;20029;-71
2022/02/17 21:35:01;;;;;;;26.67;16.17;;;;;;;13.11;93.71;99905.34;4867219;29;20048;-71
2022/02/17 21:37:46;;;;;;;26.35;16.48;;;;;;;13.04;95.19;99917.06;4879655;29;20343;-71
2022/02/17 21:40:32;;;;;;;26.88;15.55;;;;;;;12.52;96.20;99919.09;4879985;29;20033;-72
2022/02/17 21:43:21;;;;;;;21.35;13.77;;;;;;;13.02;91.11;99926.75;4880417;29;20034;-72
2022/02/17 21:46:07;;;;;;;24.30;14.00;;;;;;;12.87;91.19;99945.72;4879251;29;20111;-70
2022/02/17 21:48:53;;;;;;;20.25;13.15;;;;;;;12.96;89.92;99958.53;4880787;29;20149;-71
2022/02/17 21:51:41;;;;;;;25.15;14.63;;;;;;;12.36;94.03;99966.13;4879530;29;20029;-71
2022/02/17 21:54:27;;;;;;;27.10;14.85;;;;;;;12.59;93.03;99967.88;4879636;29;20029;-72
2022/02/17 21:57:13;;;;;;;24.42;15.20;;;;;;;12.50;93.81;99971.69;4879598;29;20104;-72
2022/02/17 21:59:59;;;;;;;24.83;15.52;;;;;;;12.52;93.89;99987.41;4880940;29;20129;-71
2022/02/17 22:02:44;;;;;;;29.38;18.70;;;;;;;12.20;97.15;99988.59;4879654;29;20044;-72
